KCEU/CEU METAR and TAF weather

Enter ICAO airport designator
Station Type Date Time Source
KCEU METAR 2021/09/16 21:54 UTC NOAA

KCEU 162154Z AUTO 03004KT 10SM OVC055 22/21 A3008 RMK AO2 SLP179 T02170211


Station Type Date Time Source
KCEU Decoded METAR 2021/09/16 21:54 UTC NOAA

CLEMSON-OCONEE COUNTY AIRPORT , SC, United States (KCEU) 34-40N 082-53W 268M
Sep 16, 2021 - 05:54 PM EDT / 2021.09.16 2154 UTC
Wind: from the NNE (030 degrees) at 5 MPH (4 KT):0
Visibility: 10 mile(s):0
Sky conditions: overcast
Temperature: 71.1 F (21.7 C)
Dew Point: 70.0 F (21.1 C)
Relative Humidity: 96%
Pressure (altimeter): 30.08 in. Hg (1018 hPa)
ob: KCEU 162154Z AUTO 03004KT 10SM OVC055 22/21 A3008 RMK AO2 SLP179 T02170211
cycle: 22

Station Type Date Time Source
KCEU TAF UTC NOAA

Error!

Example: see airport list